Strona główna
METAR-TAF:

METAR-TAF

Lotnisko :

Parauapebas, Pará, Brazylia

Szerokość geograficzna: 06-07S, Długość geograficzna: 050-00W, wysokość: 621 m

Aktualna obserwacja pogody

Raport powstał 12 minut temu, godzina 01:30 UTC
Cisza
Temperatura 23°C
Wilgotność 89%
Ciśnienie 1015 hPa
Widzialność 10 km lub więcej
Mało chmury na wysokości 1100 ft
Przerywane chmury na wysokości 9000 ft

METAR: SBCJ 190130Z 00000KT 9999 FEW011 BKN090 23/21 Q1015

czas: 22:42 (01:42 UTC)

Prognoza

Raport powstał 5 godziny i 12 minut temu, godzina 20:30 UTC
Prognoza ważna od 19 godzina 00 UTC do 19 godzina 12 UTC
Wiatr 5 kt od wschodnio-północny wschód
Widzialność: 8000 m
Mało chmury na wysokości 1500 ft
Stopniowe zmiany
od 19 godzina 09 UTC do 19 godzina 11 UTC
Widzialność: 7000 m
Przerywane chmury na wysokości 600 ft

TAF: SBCJ 182030Z 1900/1912 06005KT 8000 FEW015 TN21/1909Z TX24/1912Z BECMG 1909/1911 7000 BKN006 RMK PGZ

Obserwacja i prognoza pogody dla ponad 4000 lotnisk (raport METAR i TAF).

Dostępne stacje oznaczono żółtymi i czerwonymi punktami na mapie.

Najedź kursorem aby zobaczyć nazwę stacji.

Kliknij aby zobaczyć obserwacje i prognozy pogody.

Aby zmienić mapę: kliknij na zielony przycisk z czarnym krzyżykiem, aby powiększyć; na zielony przycisk z myślnikiem, aby pomniejszyć; na zielone strzałki, aby przejść do map sąsiednich.


METAR-TAF: